This is the latest recevied weather packets stored in our database for station/object JA1CAY-13. If no packets are shown the sender has not sent any weather packets the latest 10 day(s).
| Time | Temp. | Humidity | Pressure | Rain* | Wind** | Luminosity | Snow |
|---|---|---|---|---|---|---|---|
| 1777976126 | 17.22° C | 50% | 1019.8 hPa | 0 mm | - | 0 W/m² | - |
| 1777971265 | 19.44° C | 49% | 1018.3 hPa | 0 mm | - | 16 W/m² | - |
| 1777970725 | 20° C | 49% | 1018.1 hPa | 0 mm | - | 18 W/m² | - |
| 1777967485 | 21.11° C | 46% | 1017.6 hPa | 0 mm | - | 26 W/m² | - |
| 1777966945 | 21.11° C | 45% | 1017.5 hPa | 0 mm | - | 26 W/m² | - |
| 1777966405 | 21.67° C | 44% | 1017.4 hPa | 0 mm | - | 28 W/m² | - |
| 1777965325 | 21.67° C | 42% | 1017.2 hPa | 0 mm | - | 32 W/m² | - |
| 1777954526 | 25° C | 22% | 1017.7 hPa | 0 mm | - | 905 W/m² | - |
| 1777952905 | 23.33° C | 22% | 1017.9 hPa | 0 mm | - | 940 W/m² | - |
| 1777949125 | 21.11° C | 26% | 1018.5 hPa | 0 mm | - | 986 W/m² | - |
| 1777946425 | 20° C | 28% | 1018.9 hPa | 0 mm | - | 972 W/m² | - |
| 1777940485 | 17.22° C | 37% | 1019.2 hPa | 0 mm | - | 817 W/m² | - |
| 1777936705 | 15.56° C | 41% | 1019.6 hPa | 0 mm | - | 640 W/m² | - |
| 1777931844 | 13.33° C | 50% | 1019.1 hPa | 0 mm | - | 367 W/m² | - |
| 1777929685 | 11.67° C | 54% | 1018.7 hPa | 0 mm | - | 237 W/m² | - |
| 1777929145 | 11.11° C | 52% | 1018.4 hPa | 0 mm | - | 207 W/m² | - |
| 1777926985 | 9.44° C | 55% | 1017.6 hPa | 0 mm | - | 70 W/m² | - |
| 1777925905 | 10° C | 54% | 1017.2 hPa | 0 mm | - | 14 W/m² | - |
| 1777925365 | 10° C | 55% | 1016.9 hPa | 0 mm | - | 11 W/m² | - |
| 1777923205 | 11.67° C | 43% | 1016.2 hPa | 0 mm | - | 0 W/m² | - |
| 1777918885 | 12.22° C | 47% | 1014.1 hPa | 0 mm | - | 0 W/m² | - |
| 1777918345 | 12.22° C | 48% | 1013.8 hPa | 0 mm | - | 0 W/m² | - |
| 1777913485 | 13.33° C | 51% | 1011.4 hPa | 0 mm | - | 0 W/m² | - |
| 1777911865 | 13.89° C | 50% | 1010.7 hPa | 0 mm | - | 0 W/m² | - |
| 1777908084 | 15° C | 47% | 1009.3 hPa | 0 mm | - | 0 W/m² | - |
* Rain latest hour (hover to see other rain measurements)
** Current wind speed in m/s (hover to see current wind gust speed)